Kill Devil Hills, North Carolina
Current Conditions -  °F | °C
As of 9:55 AM on Monday 22 Dec 2014 (Local Time) from KFFA Reporting Station
Heavy Rain Heavy Rain  
Wind Chill: 52°   Ceiling: 200
Heat Index: 52°   Visibility: 1.2mi
Dew Point: 51°   Wind: 8mph
Humidity: 99%   Direction: 360°N
Pressure: 30.09"   Gusts: NA
Location:  36.03°N, 75.68°W
Report Text: KFFA 221455Z AUTO 36007KT 1 1/4SM +RA OVC002 11/11 A3009 RMK AO2 P0022 60034 T01090108
Loading
Personal Weather Stations






























Interactive Weather Map New forecast layout! Learn more

10-Day Weather Forecast

Advertisements
Track Severe Weather on mobile